Time;durP1;ratioP1;P1;durP2;ratioP2;P2;SDS_P1;SDS_P2;PMS_P1;PMS_P2;Temp;Humidity;BMP_temperature;BMP_pressure;BME280_temperature;BME280_humidity;BME280_pressure;Samples;Min_cycle;Max_cycle;Signal;HPM_P1;HPM_P2
2021/03/08 00:01:10;;;;;;;30.88;19.20;;;;;;;2.18;62.88;100692.91;5056274;28;20683;-76
2021/03/08 00:03:37;;;;;;;31.33;18.02;;;;;;;1.55;65.28;100668.34;5055988;28;20035;-76
2021/03/08 00:06:07;;;;;;;29.55;18.73;;;;;;;1.80;65.05;100692.22;5073740;28;20052;-76
2021/03/08 00:08:47;;;;;;;30.27;18.70;;;;;;;1.75;64.77;100688.78;5055674;28;20487;-76
2021/03/08 00:11:14;;;;;;;29.45;18.20;;;;;;;1.70;64.15;100675.34;5056036;28;20024;-76
2021/03/08 00:13:41;;;;;;;28.90;17.83;;;;;;;1.60;65.73;100676.81;5073462;28;20025;-76
2021/03/08 00:16:15;;;;;;;26.42;16.77;;;;;;;1.67;65.58;100683.63;5055643;28;20413;-76
2021/03/08 00:18:42;;;;;;;29.52;18.08;;;;;;;1.62;65.68;100672.66;5055873;28;20030;-76
2021/03/08 00:21:11;;;;;;;29.38;18.42;;;;;;;1.59;65.94;100665.09;5056439;28;20031;-76
2021/03/08 00:23:38;;;;;;;28.85;18.75;;;;;;;1.96;64.76;100658.25;5056260;28;20025;-75
2021/03/08 00:26:05;;;;;;;27.35;17.67;;;;;;;1.42;66.08;100640.56;5073472;28;20029;-76
2021/03/08 00:28:34;;;;;;;29.00;17.95;;;;;;;1.89;64.88;100654.78;5073054;28;20024;-76
2021/03/08 00:31:00;;;;;;;31.70;18.80;;;;;;;1.91;64.81;100644.78;5076435;28;20020;-76
2021/03/08 00:33:26;;;;;;;35.50;21.95;;;;;;;1.56;65.41;100636.66;5075566;28;20043;-76
2021/03/08 00:35:53;;;;;;;37.75;21.65;;;;;;;0.95;67.50;100636.25;5072505;28;20089;-76
2021/03/08 00:38:20;;;;;;;39.15;23.17;;;;;;;1.82;65.74;100637.13;5054494;28;20567;-76
2021/03/08 00:40:52;;;;;;;38.70;22.63;;;;;;;1.30;65.58;100615.28;5073191;28;20031;-75
2021/03/08 00:43:20;;;;;;;34.00;21.45;;;;;;;1.00;67.21;100613.00;5072689;28;20514;-75
2021/03/08 00:45:47;;;;;;;32.75;20.10;;;;;;;1.19;65.42;100630.06;5072928;28;20024;-76
2021/03/08 00:48:13;;;;;;;36.15;22.05;;;;;;;0.96;66.91;100625.41;5072263;28;20049;-75
2021/03/08 00:50:41;;;;;;;30.25;20.35;;;;;;;1.08;66.83;100629.03;5071974;28;20417;-76
2021/03/08 00:53:08;;;;;;;28.08;18.85;;;;;;;0.47;68.14;100619.38;5073106;28;20036;-75
2021/03/08 00:55:34;;;;;;;26.63;17.45;;;;;;;0.91;66.81;100606.97;5073111;28;20033;-75
2021/03/08 00:58:01;;;;;;;28.45;17.25;;;;;;;0.64;67.82;100617.22;5054288;28;20031;-75
2021/03/08 01:00:29;;;;;;;25.58;15.93;;;;;;;0.06;70.18;100627.53;5072977;28;20020;-75
2021/03/08 01:02:56;;;;;;;27.27;17.73;;;;;;;0.41;68.77;100618.38;5072914;28;20031;-74
2021/03/08 01:05:25;;;;;;;30.30;17.15;;;;;;;0.64;68.27;100608.06;5053855;28;20615;-74
2021/03/08 01:07:54;;;;;;;30.55;17.10;;;;;;;-0.14;70.41;100594.56;5072440;28;20024;-76
2021/03/08 01:10:24;;;;;;;28.63;17.83;;;;;;;0.43;69.00;100594.25;5055011;28;20063;-75
2021/03/08 01:12:50;;;;;;;31.60;18.65;;;;;;;0.39;68.89;100598.34;5054245;28;20036;-75
2021/03/08 01:15:32;;;;;;;30.67;19.10;;;;;;;0.10;70.38;100600.97;5072282;28;20036;-75
2021/03/08 01:17:59;;;;;;;;;;;;;;;0.81;68.63;100598.44;5073096;28;20024;-75
2021/03/08 01:20:26;;;;;;;34.38;19.75;;;;;;;0.45;68.58;100592.63;5054055;28;19919;-75
2021/03/08 01:22:53;;;;;;;33.30;21.48;;;;;;;0.71;68.23;100591.53;5054494;28;20040;-75
2021/03/08 01:25:29;;;;;;;37.03;22.95;;;;;;;0.54;67.74;100576.16;5054480;28;20518;-75
2021/03/08 01:27:58;;;;;;;31.60;20.30;;;;;;;0.56;67.43;100584.53;5053997;28;20533;-75
2021/03/08 01:30:31;;;;;;;36.15;20.23;;;;;;;-0.18;71.14;100586.97;5072335;28;20024;-75
2021/03/08 01:33:02;;;;;;;31.52;19.67;;;;;;;0.17;69.02;100586.16;5054308;28;20477;-75
2021/03/08 01:35:29;;;;;;;32.38;20.08;;;;;;;0.58;67.37;100572.91;5053485;28;20067;-75
2021/03/08 01:38:12;;;;;;;32.10;20.05;;;;;;;0.07;70.43;100583.41;5054046;28;20016;-75
2021/03/08 01:40:40;;;;;;;33.70;20.35;;;;;;;0.57;67.71;100565.38;5054505;28;20021;-76
2021/03/08 01:43:07;;;;;;;33.95;20.30;;;;;;;0.56;67.68;100563.69;5053888;28;20032;-76
2021/03/08 01:45:33;;;;;;;32.22;20.27;;;;;;;-0.01;69.79;100559.09;5071865;28;20029;-75
2021/03/08 01:47:59;;;;;;;33.50;20.08;;;;;;;0.48;68.77;100537.66;5071550;28;20104;-75
2021/03/08 01:50:35;;;;;;;53.38;25.95;;;;;;;0.50;68.18;100566.91;5052742;28;20098;-76
2021/03/08 01:53:16;;;;;;;43.30;23.77;;;;;;;0.20;69.80;100560.41;5056556;28;20483;-75
2021/03/08 01:55:46;;;;;;;50.25;25.60;;;;;;;0.45;69.46;100558.47;5054344;28;20074;-76
2021/03/08 01:58:13;;;;;;;42.42;24.58;;;;;;;0.63;67.97;100548.88;5071601;28;20033;-76
2021/03/08 02:00:41;;;;;;;37.50;22.58;;;;;;;0.44;69.22;100534.25;5053911;28;20382;-76
2021/03/08 02:03:16;;;;;;;42.72;24.10;;;;;;;0.06;69.93;100545.06;5071973;28;20386;-76
2021/03/08 02:05:45;;;;;;;48.67;26.35;;;;;;;0.76;68.45;100549.94;5053419;28;20028;-76
2021/03/08 02:08:15;;;;;;;55.85;29.10;;;;;;;0.08;69.51;100548.44;5053594;28;20036;-76
2021/03/08 02:10:47;;;;;;;45.97;24.00;;;;;;;0.32;70.15;100550.69;5054006;28;20024;-76
2021/03/08 02:13:33;;;;;;;37.17;20.98;;;;;;;0.41;69.02;100553.38;5053633;28;20033;-76
2021/03/08 02:16:23;;;;;;;35.38;20.17;;;;;;;0.44;68.89;100535.91;5053657;28;20075;-76
2021/03/08 02:19:28;;;;;;;32.25;18.23;;;;;;;0.44;69.06;100543.41;5053631;28;20036;-78
2021/03/08 02:22:38;;;;;;;30.38;17.33;;;;;;;0.20;69.51;100548.72;5066424;28;20052;-77
2021/03/08 02:25:43;;;;;;;25.00;16.60;;;;;;;-0.05;71.46;100554.81;5023196;28;20194;-78
2021/03/08 02:28:26;;;;;;;31.83;18.13;;;;;;;0.27;70.66;100547.22;5071203;28;20040;-77
2021/03/08 02:30:57;;;;;;;46.08;25.20;;;;;;;0.33;68.87;100525.72;5053390;28;20123;-77
2021/03/08 02:33:28;;;;;;;50.70;30.80;;;;;;;0.22;68.69;100536.28;5053362;28;20509;-76
2021/03/08 02:35:57;;;;;;;47.90;26.95;;;;;;;-0.14;69.33;100554.59;5070224;28;20097;-77
2021/03/08 02:38:29;;;;;;;72.57;43.60;;;;;;;0.02;70.11;100555.78;5070745;28;20587;-77
2021/03/08 02:41:21;;;;;;;49.92;30.40;;;;;;;0.37;68.84;100551.59;5071155;28;20032;-77
2021/03/08 02:43:57;;;;;;;50.42;31.40;;;;;;;0.25;68.96;100554.69;5049203;28;20124;-77
2021/03/08 02:46:38;;;;;;;46.70;28.13;;;;;;;0.26;68.73;100555.53;5053472;28;20470;-76
2021/03/08 02:49:09;;;;;;;36.20;23.30;;;;;;;0.68;66.83;100552.28;5069664;28;20137;-76
2021/03/08 02:51:42;;;;;;;38.87;22.77;;;;;;;0.20;67.75;100545.41;5053136;28;20032;-77
2021/03/08 02:54:13;;;;;;;40.72;24.55;;;;;;;0.05;69.15;100527.53;5053644;28;20043;-78
2021/03/08 02:56:42;;;;;;;46.90;26.20;;;;;;;-0.10;68.98;100541.38;5052165;28;20115;-78
2021/03/08 02:59:12;;;;;;;42.97;26.00;;;;;;;0.12;68.53;100544.38;5052873;28;20031;-78
2021/03/08 03:01:42;;;;;;;59.05;31.15;;;;;;;0.29;68.42;100525.59;5070419;28;20028;-76
2021/03/08 03:04:11;;;;;;;57.92;30.40;;;;;;;0.00;68.86;100524.97;5052367;28;20025;-78
2021/03/08 03:06:39;;;;;;;49.50;27.30;;;;;;;-0.21;69.72;100545.28;5051708;28;20498;-79
2021/03/08 03:09:10;;;;;;;39.17;20.92;;;;;;;-0.68;71.02;100547.38;5052586;28;20051;-79
2021/03/08 03:11:43;;;;;;;35.92;18.15;;;;;;;-1.12;72.13;100523.75;5051952;28;20028;-78
2021/03/08 03:14:11;;;;;;;32.78;19.65;;;;;;;-0.99;72.68;100543.25;5077680;28;20028;-78
2021/03/08 03:16:41;;;;;;;34.20;21.98;;;;;;;-0.88;70.36;100549.34;5059624;28;20559;-78
2021/03/08 03:19:12;;;;;;;32.92;20.38;;;;;;;-1.25;72.14;100546.66;5069652;28;20032;-79
2021/03/08 03:21:41;;;;;;;35.22;20.55;;;;;;;-0.95;71.42;100549.97;5070115;28;20108;-77
2021/03/08 03:24:09;;;;;;;39.55;21.65;;;;;;;-0.99;70.78;100549.06;5052889;28;20033;-76
2021/03/08 03:26:36;;;;;;;28.98;18.48;;;;;;;-1.02;71.31;100535.66;5069440;28;20028;-76
2021/03/08 03:29:05;;;;;;;28.30;18.27;;;;;;;-0.90;71.41;100528.50;5052756;28;20029;-75
2021/03/08 03:31:33;;;;;;;31.48;20.75;;;;;;;-0.78;71.13;100537.97;5052683;28;20032;-75
2021/03/08 03:34:07;;;;;;;39.20;23.90;;;;;;;-1.24;71.60;100540.84;5069686;28;20036;-76
2021/03/08 03:36:50;;;;;;;41.40;25.33;;;;;;;-1.60;73.36;100524.84;5051769;28;20028;-76
2021/03/08 03:39:16;;;;;;;41.42;25.77;;;;;;;-0.95;70.37;100518.41;5052583;28;20028;-76
2021/03/08 03:41:43;;;;;;;42.10;25.90;;;;;;;-1.23;71.43;100522.63;5052379;28;20554;-76
2021/03/08 03:44:12;;;;;;;44.72;27.13;;;;;;;-1.29;71.92;100534.91;5052376;28;20029;-76
2021/03/08 03:46:44;;;;;;;43.53;27.38;;;;;;;-1.57;73.55;100538.25;5052748;28;20025;-76
2021/03/08 03:49:14;;;;;;;45.45;27.33;;;;;;;-1.28;71.93;100544.91;5069604;28;20075;-76
2021/03/08 03:51:44;;;;;;;53.83;30.83;;;;;;;-1.00;72.63;100547.38;5052298;28;20048;-76
2021/03/08 03:54:11;;;;;;;51.30;29.95;;;;;;;-0.62;71.08;100545.91;5070477;28;20043;-76
2021/03/08 03:56:45;;;;;;;52.10;30.65;;;;;;;-0.64;69.52;100539.16;5051622;28;20024;-76
2021/03/08 03:59:35;;;;;;;45.08;29.08;;;;;;;-0.71;71.55;100545.66;5070205;28;20058;-76
2021/03/08 04:02:39;;;;;;;45.97;28.20;;;;;;;-1.31;73.68;100553.97;5052420;28;20123;-77
2021/03/08 04:05:10;;;;;;;48.00;28.80;;;;;;;-0.33;69.97;100546.63;5069787;28;20141;-75
2021/03/08 04:07:50;;;;;;;39.17;22.10;;;;;;;-0.93;72.22;100555.84;5052445;28;20060;-75
2021/03/08 04:10:33;;;;;;;45.55;28.63;;;;;;;-0.87;71.05;100553.53;5051666;28;20043;-76
2021/03/08 04:13:13;;;;;;;50.65;29.80;;;;;;;-0.70;69.98;100559.84;5053173;28;20060;-74
2021/03/08 04:15:49;;;;;;;55.38;31.00;;;;;;;-0.44;68.58;100548.88;5055735;28;20041;-77
2021/03/08 04:18:16;;;;;;;51.38;31.35;;;;;;;-0.87;70.07;100541.06;5072957;28;20028;-76
2021/03/08 04:20:44;;;;;;;50.20;29.67;;;;;;;-1.57;72.02;100544.88;5055943;28;20020;-77
2021/03/08 04:23:12;;;;;;;45.08;28.02;;;;;;;-1.16;69.99;100557.75;5055357;28;20090;-76
2021/03/08 04:25:46;;;;;;;44.20;28.27;;;;;;;-0.94;70.33;100561.66;5055689;28;20029;-76
2021/03/08 04:28:14;;;;;;;79.15;46.30;;;;;;;-1.20;70.49;100532.66;5072824;28;20037;-78
2021/03/08 04:30:45;;;;;;;47.05;26.75;;;;;;;-1.08;71.13;100550.47;5054110;28;20028;-76
2021/03/08 04:33:12;;;;;;;36.72;24.27;;;;;;;-0.93;70.00;100550.88;5054870;28;20089;-75
2021/03/08 04:35:39;;;;;;;42.53;24.27;;;;;;;-0.93;68.34;100544.25;5069070;28;20036;-78
2021/03/08 04:38:07;;;;;;;52.72;29.67;;;;;;;-1.19;71.87;100539.34;5057814;28;20020;-75
2021/03/08 04:40:38;;;;;;;58.30;33.83;;;;;;;-1.45;71.76;100532.78;5072962;28;20020;-77
2021/03/08 04:43:26;;;;;;;61.10;34.80;;;;;;;-0.91;70.74;100544.28;5054006;28;20497;-75
2021/03/08 04:45:57;;;;;;;57.38;33.55;;;;;;;-0.64;70.73;100524.19;5054327;28;20097;-74
2021/03/08 04:48:23;;;;;;;57.58;33.10;;;;;;;-1.38;72.62;100517.19;5049897;28;20041;-74
2021/03/08 04:50:49;;;;;;;60.72;34.70;;;;;;;-0.83;70.10;100529.53;5050820;28;20113;-74
2021/03/08 04:53:16;;;;;;;77.35;40.33;;;;;;;-0.76;70.26;100549.69;5052395;28;20037;-74
2021/03/08 04:55:52;;;;;;;83.80;44.05;;;;;;;-0.51;69.44;100546.16;5050378;28;20032;-75
2021/03/08 04:58:25;;;;;;;84.88;42.72;;;;;;;-0.73;69.96;100528.97;5050311;28;20025;-75
2021/03/08 05:00:50;;;;;;;86.45;41.40;;;;;;;-0.67;69.40;100534.13;5051628;28;20075;-75
2021/03/08 05:03:18;;;;;;;54.28;28.05;;;;;;;-0.32;69.10;100501.69;5050188;28;20072;-74
2021/03/08 05:05:52;;;;;;;48.42;27.58;;;;;;;0.64;66.04;100449.66;5049187;28;20040;-74
2021/03/08 05:08:20;;;;;;;82.07;34.45;;;;;;;4.60;53.40;100372.84;5050622;28;20041;-74
2021/03/08 05:11:01;;;;;;;69.55;33.90;;;;;;;-0.01;66.54;100509.13;5050852;28;20029;-76
2021/03/08 05:13:36;;;;;;;34.63;20.55;;;;;;;1.51;62.51;100516.31;5050831;28;20127;-77
2021/03/08 05:16:02;;;;;;;38.70;21.92;;;;;;;1.95;61.30;100516.19;5050726;28;20032;-78
2021/03/08 05:18:31;;;;;;;39.15;22.95;;;;;;;2.50;58.56;100470.97;5049791;28;20021;-80
2021/03/08 05:21:01;;;;;;;203.05;82.72;;;;;;;3.07;58.29;100506.78;5050723;28;20029;-79
2021/03/08 05:23:30;;;;;;;125.10;53.13;;;;;;;3.05;58.01;100515.97;5055800;28;20028;-79
2021/03/08 05:26:00;;;;;;;64.35;34.42;;;;;;;3.28;56.42;100511.19;5064443;28;20093;-79
2021/03/08 05:28:31;;;;;;;74.10;37.45;;;;;;;2.83;59.00;100519.09;5070464;28;20033;-77
2021/03/08 05:30:59;;;;;;;60.80;33.00;;;;;;;2.78;59.30;100514.81;5071889;28;20031;-79
2021/03/08 05:33:30;;;;;;;81.47;42.55;;;;;;;4.70;53.95;100523.09;5069770;28;20101;-77
2021/03/08 05:35:59;;;;;;;62.53;32.37;;;;;;;4.29;54.49;100525.41;5070182;28;20033;-80
2021/03/08 05:38:32;;;;;;;87.82;44.63;;;;;;;4.30;54.67;100517.03;5064815;28;20294;-81
2021/03/08 05:41:02;;;;;;;46.25;32.00;;;;;;;3.68;54.73;100527.47;5051465;28;20029;-78
2021/03/08 05:43:32;;;;;;;42.10;25.75;;;;;;;3.83;56.35;100537.66;5050974;28;20036;-79
2021/03/08 05:46:24;;;;;;;48.28;27.25;;;;;;;3.34;57.74;100543.91;5052314;28;20029;-81
2021/03/08 05:49:07;;;;;;;36.47;19.80;;;;;;;2.21;60.59;100545.00;5058482;28;20052;-82
2021/03/08 05:51:48;;;;;;;42.25;27.00;;;;;;;1.00;65.38;100554.59;5055921;28;20578;-83
2021/03/08 05:54:42;;;;;;;39.20;22.80;;;;;;;0.93;66.88;100552.78;5069443;28;20028;-82
2021/03/08 05:57:25;;;;;;;46.05;27.35;;;;;;;0.98;66.80;100554.56;5054198;28;20178;-82
2021/03/08 06:00:02;;;;;;;43.47;27.92;;;;;;;0.42;70.33;100565.03;5072363;28;20028;-82
2021/03/08 06:02:52;;;;;;;35.50;23.85;;;;;;;0.55;70.65;100557.84;5054965;28;20064;-82
2021/03/08 06:05:56;;;;;;;37.72;23.70;;;;;;;1.89;65.83;100571.22;5053550;28;20032;-81
2021/03/08 06:08:41;;;;;;;49.58;31.42;;;;;;;1.65;66.57;100569.16;5054384;28;20106;-81
2021/03/08 06:11:11;;;;;;;44.60;26.48;;;;;;;1.37;67.29;100564.47;5054318;28;20040;-81
2021/03/08 06:13:55;;;;;;;41.33;26.52;;;;;;;1.66;66.79;100568.34;5054661;28;20020;-84
2021/03/08 06:16:36;;;;;;;33.70;22.27;;;;;;;2.23;63.96;100561.75;5054088;28;20469;-81
2021/03/08 06:19:07;;;;;;;34.45;21.42;;;;;;;2.59;63.37;100556.41;5071450;28;20501;-83
2021/03/08 06:21:40;;;;;;;36.80;23.50;;;;;;;2.84;62.36;100568.44;5071793;28;20737;-82
2021/03/08 06:24:11;;;;;;;35.10;23.15;;;;;;;2.84;62.89;100575.97;5053573;28;20041;-86
2021/03/08 06:26:40;;;;;;;40.30;25.05;;;;;;;2.77;63.50;100560.84;5053745;28;20055;-85
2021/03/08 06:29:26;;;;;;;39.85;25.55;;;;;;;2.78;63.35;100563.34;5053942;28;20103;-84
2021/03/08 06:31:57;;;;;;;52.80;31.65;;;;;;;2.89;62.20;100520.81;5053369;28;20033;-86
2021/03/08 06:34:24;;;;;;;45.17;28.20;;;;;;;3.24;62.42;100565.59;5053634;28;20036;-81
2021/03/08 06:36:53;;;;;;;49.55;30.77;;;;;;;3.27;62.07;100567.25;5053127;28;20033;-80
2021/03/08 06:39:19;;;;;;;63.45;38.00;;;;;;;3.96;61.38;100559.56;5052964;28;20021;-80
2021/03/08 06:41:46;;;;;;;66.30;37.97;;;;;;;4.35;60.12;100548.13;5053634;28;20116;-81
2021/03/08 06:44:13;;;;;;;69.72;38.78;;;;;;;3.57;62.73;100564.22;5053320;28;20091;-81
2021/03/08 06:46:40;;;;;;;57.78;34.40;;;;;;;4.67;60.57;100553.31;5053015;28;20028;-80
2021/03/08 06:49:06;;;;;;;44.67;28.08;;;;;;;4.60;60.73;100533.97;5049839;28;20526;-81
2021/03/08 06:51:32;;;;;;;47.03;26.77;;;;;;;4.32;61.67;100549.75;5050094;28;20043;-86
2021/03/08 06:54:00;;;;;;;49.10;30.52;;;;;;;4.42;60.24;100561.56;5051809;28;20075;-85
2021/03/08 06:56:27;;;;;;;43.00;28.25;;;;;;;5.35;58.30;100542.66;5051392;28;20086;-79
2021/03/08 06:59:13;;;;;;;47.40;30.27;;;;;;;5.80;57.24;100548.56;5049787;28;20502;-84
2021/03/08 07:01:43;;;;;;;41.15;26.63;;;;;;;5.49;60.51;100544.34;5050446;28;20087;-86
2021/03/08 07:04:16;;;;;;;42.92;29.13;;;;;;;6.25;57.06;100541.84;5049442;28;20087;-81
2021/03/08 07:06:59;;;;;;;41.10;28.38;;;;;;;5.04;60.94;100527.44;5049351;28;20035;-82
2021/03/08 07:09:25;;;;;;;39.92;26.33;;;;;;;4.43;64.48;100558.22;5056123;28;20021;-80
2021/03/08 07:12:10;;;;;;;44.28;29.67;;;;;;;5.72;58.83;100556.97;5061074;28;20031;-82
2021/03/08 07:14:38;;;;;;;38.97;26.98;;;;;;;5.60;59.72;100529.22;5049397;28;20120;-81
2021/03/08 07:17:29;;;;;;;35.08;23.55;;;;;;;6.29;58.48;100546.91;5050492;28;20029;-84
2021/03/08 07:19:57;;;;;;;34.63;24.33;;;;;;;5.60;60.91;100534.28;5041232;28;20592;-82
2021/03/08 07:22:47;;;;;;;38.60;24.88;;;;;;;6.05;60.21;100531.78;5050393;28;20049;-81
2021/03/08 07:25:31;;;;;;;39.72;24.15;;;;;;;4.77;64.76;100531.53;5049633;28;20147;-81
2021/03/08 07:28:03;;;;;;;34.53;23.95;;;;;;;6.39;60.62;100513.22;5050673;28;20037;-84
2021/03/08 07:30:33;;;;;;;39.45;25.92;;;;;;;7.06;57.31;100528.97;5050181;28;20021;-84
2021/03/08 07:33:05;;;;;;;43.53;25.70;;;;;;;6.67;58.26;100508.91;5049771;28;20033;-83
2021/03/08 07:35:53;;;;;;;41.35;27.38;;;;;;;6.65;59.61;100515.66;5048715;28;20033;-82
2021/03/08 07:38:44;;;;;;;42.55;29.00;;;;;;;6.20;60.79;100513.28;5050296;28;20453;-84
2021/03/08 07:41:32;;;;;;;40.15;26.98;;;;;;;6.69;57.79;100510.59;5050384;28;20025;-81
2021/03/08 07:44:11;;;;;;;40.17;26.38;;;;;;;6.95;58.51;100510.50;5049024;28;20133;-79
2021/03/08 07:46:38;;;;;;;41.13;28.17;;;;;;;6.66;58.74;100497.13;5048853;28;20029;-82
2021/03/08 07:49:05;;;;;;;42.55;27.70;;;;;;;7.08;58.28;100489.34;5051676;28;20045;-82
2021/03/08 07:51:34;;;;;;;39.15;26.48;;;;;;;6.79;58.84;100498.78;5054012;28;20021;-81
2021/03/08 07:53:59;;;;;;;39.10;27.60;;;;;;;6.66;58.37;100490.41;5053006;28;20144;-82
2021/03/08 07:56:27;;;;;;;37.83;26.17;;;;;;;7.57;56.44;100477.19;5053234;28;20562;-79
2021/03/08 07:58:54;;;;;;;35.72;25.42;;;;;;;7.30;58.42;100477.41;5054221;28;20082;-80
2021/03/08 08:01:20;;;;;;;37.13;25.85;;;;;;;8.63;57.00;100475.34;5053038;28;20633;-81
2021/03/08 08:03:47;;;;;;;30.95;22.25;;;;;;;7.92;56.70;100474.38;5054165;28;20049;-81
2021/03/08 08:06:17;;;;;;;36.45;24.77;;;;;;;8.24;55.47;100465.59;5052309;28;20033;-82
2021/03/08 08:08:58;;;;;;;43.50;28.58;;;;;;;8.42;56.43;100465.44;5052618;28;20021;-80
2021/03/08 08:11:50;;;;;;;35.35;24.98;;;;;;;8.74;55.71;100462.50;5052730;28;20397;-82
2021/03/08 08:14:19;;;;;;;35.65;23.73;;;;;;;7.93;57.50;100456.66;5052677;28;20036;-79
2021/03/08 08:16:49;;;;;;;37.90;25.60;;;;;;;8.09;57.91;100455.66;5053070;28;20029;-82
2021/03/08 08:19:22;;;;;;;34.42;23.33;;;;;;;8.09;57.46;100455.66;5053054;28;20039;-81
2021/03/08 08:21:58;;;;;;;35.92;25.45;;;;;;;7.98;56.38;100457.47;5052674;28;20048;-84
2021/03/08 08:24:27;;;;;;;34.15;24.48;;;;;;;7.91;57.55;100455.81;5066419;28;20048;-81
2021/03/08 08:26:58;;;;;;;40.42;26.02;;;;;;;7.94;58.19;100443.16;5055128;28;20032;-81
2021/03/08 08:29:41;;;;;;;34.50;23.17;;;;;;;8.30;56.21;100440.25;5053452;28;20025;-83
2021/03/08 08:32:24;;;;;;;38.13;24.83;;;;;;;8.54;55.67;100434.88;5052617;28;20048;-82
2021/03/08 08:34:53;;;;;;;40.90;26.25;;;;;;;8.63;54.92;100437.31;5052036;28;20514;-82
2021/03/08 08:37:25;;;;;;;35.22;24.67;;;;;;;8.20;57.15;100438.63;5052340;28;20025;-83
2021/03/08 08:39:57;;;;;;;34.55;23.83;;;;;;;8.94;54.34;100435.19;5053455;28;20039;-82
2021/03/08 08:42:29;;;;;;;35.13;22.77;;;;;;;9.31;54.16;100427.91;5053519;28;20583;-86
2021/03/08 08:45:20;;;;;;;;;;;;;;;8.74;54.68;100432.94;5053886;28;20024;-80
2021/03/08 08:48:03;;;;;;;35.78;23.88;;;;;;;8.67;54.40;100415.31;5052432;28;19924;-85
2021/03/08 08:50:46;;;;;;;33.33;23.15;;;;;;;8.82;53.74;100410.00;5052389;28;20038;-88
2021/03/08 08:53:11;;;;;;;34.47;24.23;;;;;;;8.35;54.37;100435.13;5051825;28;20032;-85
2021/03/08 08:55:37;;;;;;;32.28;23.90;;;;;;;8.65;54.42;100439.84;5053183;28;20041;-84
2021/03/08 08:58:24;;;;;;;35.00;23.13;;;;;;;8.97;53.94;100429.25;5051892;28;20116;-86
2021/03/08 09:01:17;;;;;;;34.90;24.75;;;;;;;9.47;52.53;100420.00;5051321;28;20025;-85
2021/03/08 09:04:00;;;;;;;34.22;24.35;;;;;;;9.21;52.47;100399.28;5052488;28;20029;-82
2021/03/08 09:06:54;;;;;;;31.70;22.17;;;;;;;8.69;53.49;100409.34;5051492;28;20025;-83
2021/03/08 09:09:24;;;;;;;31.50;22.50;;;;;;;10.33;50.90;100385.44;5052798;28;20108;-86
2021/03/08 09:12:24;;;;;;;30.73;21.70;;;;;;;10.10;49.96;100402.00;5053209;28;20049;-83
2021/03/08 09:14:57;;;;;;;30.92;22.58;;;;;;;10.32;49.99;100387.97;5052571;28;20057;-83
2021/03/08 09:17:49;;;;;;;29.63;21.70;;;;;;;9.61;51.54;100402.84;5051547;28;20040;-79
2021/03/08 09:20:18;;;;;;;28.05;19.45;;;;;;;10.33;49.56;100393.03;5052492;28;20037;-80
2021/03/08 09:22:53;;;;;;;31.77;21.95;;;;;;;9.56;51.11;100394.50;5051344;28;20040;-83
2021/03/08 09:25:24;;;;;;;51.60;30.75;;;;;;;10.38;50.03;100393.78;5051696;28;20029;-83
2021/03/08 09:28:08;;;;;;;28.35;19.73;;;;;;;10.77;49.23;100383.63;4868411;28;10001236;-82
2021/03/08 09:30:38;;;;;;;30.10;22.10;;;;;;;11.36;47.82;100380.53;5028132;28;20249;-84
2021/03/08 09:33:08;;;;;;;25.52;18.67;;;;;;;11.34;47.32;100372.09;5051422;28;20033;-82
2021/03/08 09:35:37;;;;;;;24.27;17.52;;;;;;;10.12;50.11;100390.09;5034003;28;20037;-81
2021/03/08 09:38:11;;;;;;;23.55;17.63;;;;;;;11.41;46.04;100367.69;5037362;28;20033;-79
2021/03/08 09:40:40;;;;;;;23.25;18.23;;;;;;;10.48;47.25;100376.63;5040993;28;20021;-81
2021/03/08 09:43:19;;;;;;;24.05;18.05;;;;;;;11.02;47.14;100375.41;5034021;28;20041;-79
2021/03/08 09:46:00;;;;;;;22.88;16.55;;;;;;;10.78;47.38;100342.91;5031490;28;20028;-81
2021/03/08 09:48:30;;;;;;;22.42;17.38;;;;;;;11.41;46.35;100368.50;5035257;28;20090;-85
2021/03/08 09:51:14;;;;;;;24.00;16.85;;;;;;;10.93;46.99;100347.66;5067128;28;20028;-86
2021/03/08 09:53:46;;;;;;;23.67;16.25;;;;;;;11.59;46.16;100368.03;5049371;28;20048;-86
2021/03/08 09:56:17;;;;;;;23.00;16.40;;;;;;;10.39;47.41;100359.03;5050268;28;20032;-82
2021/03/08 09:58:44;;;;;;;20.77;16.00;;;;;;;11.61;45.84;100353.56;5067202;28;20473;-82
2021/03/08 10:01:18;;;;;;;26.80;21.65;;;;;;;11.42;45.47;100354.91;5050476;28;20124;-83
2021/03/08 10:03:44;;;;;;;21.77;16.52;;;;;;;11.23;44.85;100348.63;5057965;28;20053;-81
2021/03/08 10:06:25;;;;;;;21.58;16.77;;;;;;;11.77;44.85;100348.91;5085989;28;20035;-82
2021/03/08 10:08:52;;;;;;;23.10;17.08;;;;;;;11.37;46.09;100355.91;5069827;28;20056;-81
2021/03/08 10:11:25;;;;;;;23.02;16.33;;;;;;;12.64;43.12;100332.78;5069601;28;20106;-83
2021/03/08 10:13:57;;;;;;;24.70;18.30;;;;;;;12.29;43.58;100333.84;5069646;28;20028;-83
2021/03/08 10:16:26;;;;;;;25.55;18.02;;;;;;;12.70;42.97;100330.03;5087495;28;20027;-82
2021/03/08 10:18:53;;;;;;;23.55;17.65;;;;;;;12.36;43.89;100319.22;5069048;28;20561;-81
2021/03/08 10:21:20;;;;;;;23.70;18.58;;;;;;;11.82;44.27;100322.47;5068898;28;20028;-84
2021/03/08 10:23:46;;;;;;;22.65;16.35;;;;;;;13.31;41.36;100313.66;5086961;28;20036;-83
2021/03/08 10:26:14;;;;;;;22.80;17.30;;;;;;;13.75;41.42;100297.59;5086105;28;20104;-80
2021/03/08 10:28:45;;;;;;;21.92;16.05;;;;;;;12.47;43.98;100306.97;5059873;28;20023;-81
2021/03/08 10:31:30;;;;;;;21.57;16.07;;;;;;;13.33;42.60;100307.56;5067009;28;20103;-82
2021/03/08 10:34:00;;;;;;;22.73;17.65;;;;;;;13.84;41.32;100308.31;5047487;28;20031;-79
2021/03/08 10:36:34;;;;;;;27.27;17.20;;;;;;;13.28;40.62;100300.97;5052166;28;20016;-78
2021/03/08 10:39:05;;;;;;;22.33;15.85;;;;;;;13.07;40.96;100289.78;5067512;28;20932;-82
2021/03/08 10:41:31;;;;;;;21.23;15.60;;;;;;;13.30;41.67;100276.22;5068420;28;20024;-78
2021/03/08 10:43:59;;;;;;;21.48;16.02;;;;;;;12.57;42.36;100272.66;5068740;28;20131;-78
2021/03/08 10:46:35;;;;;;;20.00;16.08;;;;;;;13.62;40.66;100258.88;5068864;28;20024;-80
2021/03/08 10:49:03;;;;;;;21.33;15.95;;;;;;;14.27;39.52;100265.81;5085682;28;20560;-80
2021/03/08 10:51:33;;;;;;;20.35;15.48;;;;;;;14.13;41.89;100266.34;5071260;28;20031;-80
2021/03/08 10:54:02;;;;;;;24.65;16.92;;;;;;;14.26;39.85;100262.41;5094780;28;20189;-82
2021/03/08 10:56:30;;;;;;;20.05;15.85;;;;;;;13.56;40.58;100248.88;5088923;28;20025;-83
2021/03/08 10:59:21;;;;;;;22.08;15.43;;;;;;;14.26;38.93;100228.38;5073052;28;20192;-84
2021/03/08 11:02:09;;;;;;;20.08;16.00;;;;;;;13.80;39.63;100242.06;5073845;28;20089;-84
2021/03/08 11:04:47;;;;;;;22.17;16.38;;;;;;;14.06;39.33;100239.34;5066146;28;20063;-83
2021/03/08 11:07:39;;;;;;;21.48;16.02;;;;;;;14.52;38.85;100230.72;5080124;28;20017;-82
2021/03/08 11:10:10;;;;;;;19.95;15.20;;;;;;;13.67;40.92;100216.09;5062425;28;20028;-83
2021/03/08 11:13:12;;;;;;;22.95;16.55;;;;;;;14.00;38.77;100220.84;5079753;28;20474;-82
2021/03/08 11:16:22;;;;;;;19.77;15.60;;;;;;;14.44;38.80;100220.00;5010333;28;20029;-81
2021/03/08 11:19:34;;;;;;;22.10;17.30;;;;;;;14.70;39.75;100214.63;5008615;28;20026;-81
2021/03/08 11:22:14;;;;;;;22.27;16.67;;;;;;;13.46;40.24;100201.56;5009311;28;20064;-82
2021/03/08 11:25:29;;;;;;;29.60;22.33;;;;;;;13.85;39.31;100206.91;5053876;28;20098;-82
2021/03/08 11:27:56;;;;;;;23.02;17.17;;;;;;;14.91;38.46;100185.63;5062045;28;20111;-82
2021/03/08 11:30:34;;;;;;;22.10;16.10;;;;;;;14.85;38.59;100185.03;5080586;28;20028;-81
2021/03/08 11:33:51;;;;;;;22.65;16.58;;;;;;;14.79;38.65;100183.56;5062729;28;20016;-80
2021/03/08 11:36:32;;;;;;;20.63;16.35;;;;;;;14.64;39.35;100181.63;5079655;28;20060;-81
2021/03/08 11:39:26;;;;;;;22.02;15.68;;;;;;;15.26;38.22;100172.13;5078762;28;20029;-80
2021/03/08 11:45:14;;;;;;;19.97;15.30;;;;;;;15.26;37.92;100146.50;5079219;28;20124;-80
2021/03/08 11:47:40;;;;;;;18.92;14.80;;;;;;;14.51;39.53;100134.41;5060427;28;20695;-80
2021/03/08 11:50:07;;;;;;;20.75;15.00;;;;;;;15.29;38.94;100135.28;5061285;28;20040;-80